Aérodrome :
LOGIN :

S'inscrire | Disclaimer

   EN    FR    IT 

 










Légende :    VFR   VFR Marginal   IFR   IFR Intensif   IFR Très Intensif
Visi : 
Plafond : 
>= 8 km
>= 3000ft
5 à 8 km
1000 à 3000 ft
1500m à 5 km
500 à 1000 ft
800 à 1500m
200 à 500 ft
< 800m
< 200 ft
Symboles :   Orages  Brouillard  Fortes neiges  Fortes précipitations  Vent > 20 kt
SIGMETs :   Divers  Orages  Givrage  Turbulence  Onde Orograph.  Cendres Volcan.






- Altitude de l'aérodrome : 614 ft
- Code IATA : CRL


EBCI - Charleroi

DERNIER METAR :
  • 210520Z 11003KT 6000 FEW006 BKN008 M01/M02 Q1008 TEMPO 2000 BR BKN004

METARs EXPIRÉS :
  • 210450Z 11004KT 6000 FEW007 BKN009 M01/M02 Q1008 TEMPO 3000 BR BKN005
  • 210420Z 10004KT 6000 SCT007 BKN010 M01/M02 Q1008 TEMPO 4000 BR BKN005
  • 210350Z 11005KT 7000 NSC M01/M02 Q1008 NOSIG
  • 210320Z 12006KT CAVOK M01/M02 Q1009 NOSIG
  • 210250Z 11005KT CAVOK M01/M02 Q1009 NOSIG

TAF TAF EBCI
Valide du 21 à 06h jusqu'au 22 à 12h UTC


210501Z 2106/2212 12005KT 7000 BKN006
BECMG 2110/2112 NSC



MET'MAP, la Météo Aéronautique d'un coup d'oeil ! - Copyright ORBIFLY Décembre 2007 - Disclaimer

ORBIFLY MET'MAP TEAM :

Programmation & Développement : Alexandra Zaïnal
Conception & Développement : Baudouin d'Aumeries
Co-Programmation & Développement : Marc-Olivier Méhu
Soutien technique & logistique : Manuel Goepfert

Contact : metmap@orbifly.com




SOURCES & CREDITS :

   NOAA